Anicuns, Brazil
Current Conditions -  °F | °C
As of 10:00 PM on Sunday 23 Nov 2014 (Local Time) from SBGO Reporting Station
Light Rain Light Rain  
Wind Chill: 70°   Ceiling: 9000
Heat Index: 70°   Visibility: 6mi
Dew Point: 66°   Wind: 0mph
Humidity: 88%   Direction: NA
Pressure: 30"   Gusts: NA
Location:  16.46°S, 49.96°W
Report Text: SBGO 240000Z 00000KT 9999 -RA FEW008 OVC090 21/19 Q1016
Loading
Personal Weather Stations






























Interactive Weather Map New forecast layout! Learn more

10-Day Weather Forecast

Advertisements
Track Severe Weather on mobile